sensor_id;sensor_type;location;lat;lon;timestamp;P1;durP1;ratioP1;P2;durP2;ratioP2
9208;SDS011;4639;48.862;9.188;2024-02-04T00:01:40;359.02;;;331.98;;
9208;SDS011;4639;48.862;9.188;2024-02-04T00:04:06;199.75;;;186.48;;
9208;SDS011;4639;48.862;9.188;2024-02-04T00:06:31;194.90;;;182.02;;
9208;SDS011;4639;48.862;9.188;2024-02-04T00:08:57;458.95;;;422.63;;
9208;SDS011;4639;48.862;9.188;2024-02-04T00:11:22;253.02;;;235.00;;
9208;SDS011;4639;48.862;9.188;2024-02-04T00:13:48;289.15;;;268.65;;
9208;SDS011;4639;48.862;9.188;2024-02-04T00:16:14;231.43;;;215.98;;
9208;SDS011;4639;48.862;9.188;2024-02-04T00:18:39;168.43;;;157.95;;
9208;SDS011;4639;48.862;9.188;2024-02-04T00:21:05;176.60;;;165.75;;
9208;SDS011;4639;48.862;9.188;2024-02-04T00:23:31;347.05;;;321.83;;
9208;SDS011;4639;48.862;9.188;2024-02-04T00:25:56;214.23;;;200.45;;
9208;SDS011;4639;48.862;9.188;2024-02-04T00:28:22;188.52;;;176.75;;
9208;SDS011;4639;48.862;9.188;2024-02-04T00:30:47;189.75;;;177.90;;
9208;SDS011;4639;48.862;9.188;2024-02-04T00:33:19;190.32;;;178.40;;
9208;SDS011;4639;48.862;9.188;2024-02-04T00:35:45;186.07;;;174.50;;
9208;SDS011;4639;48.862;9.188;2024-02-04T00:38:11;240.50;;;224.55;;
9208;SDS011;4639;48.862;9.188;2024-02-04T00:40:37;243.32;;;227.50;;
9208;SDS011;4639;48.862;9.188;2024-02-04T00:43:02;204.70;;;191.80;;
9208;SDS011;4639;48.862;9.188;2024-02-04T00:45:28;279.20;;;260.25;;
9208;SDS011;4639;48.862;9.188;2024-02-04T00:47:54;195.60;;;183.43;;
9208;SDS011;4639;48.862;9.188;2024-02-04T00:50:19;181.05;;;169.93;;
9208;SDS011;4639;48.862;9.188;2024-02-04T00:52:45;299.77;;;278.30;;
9208;SDS011;4639;48.862;9.188;2024-02-04T00:55:10;186.95;;;175.25;;
9208;SDS011;4639;48.862;9.188;2024-02-04T00:57:36;206.43;;;193.68;;
9208;SDS011;4639;48.862;9.188;2024-02-04T01:00:01;183.25;;;171.77;;
9208;SDS011;4639;48.862;9.188;2024-02-04T01:02:28;191.93;;;179.98;;
9208;SDS011;4639;48.862;9.188;2024-02-04T01:04:54;200.50;;;187.82;;
9208;SDS011;4639;48.862;9.188;2024-02-04T01:07:21;232.55;;;217.23;;
9208;SDS011;4639;48.862;9.188;2024-02-04T01:09:47;224.30;;;210.05;;
9208;SDS011;4639;48.862;9.188;2024-02-04T01:12:12;203.77;;;191.00;;
9208;SDS011;4639;48.862;9.188;2024-02-04T01:14:38;283.73;;;263.98;;
9208;SDS011;4639;48.862;9.188;2024-02-04T01:17:03;224.20;;;209.82;;
9208;SDS011;4639;48.862;9.188;2024-02-04T01:19:29;184.98;;;173.73;;
9208;SDS011;4639;48.862;9.188;2024-02-04T01:21:55;197.30;;;185.15;;
9208;SDS011;4639;48.862;9.188;2024-02-04T01:24:20;183.90;;;172.68;;
9208;SDS011;4639;48.862;9.188;2024-02-04T01:26:46;180.73;;;169.68;;
9208;SDS011;4639;48.862;9.188;2024-02-04T01:29:11;332.95;;;309.77;;
9208;SDS011;4639;48.862;9.188;2024-02-04T01:31:37;294.17;;;274.33;;
9208;SDS011;4639;48.862;9.188;2024-02-04T01:34:02;177.93;;;166.98;;
9208;SDS011;4639;48.862;9.188;2024-02-04T01:36:28;207.88;;;194.73;;
9208;SDS011;4639;48.862;9.188;2024-02-04T01:38:55;176.70;;;165.98;;
9208;SDS011;4639;48.862;9.188;2024-02-04T01:41:21;187.38;;;175.90;;
9208;SDS011;4639;48.862;9.188;2024-02-04T01:43:46;181.52;;;170.55;;
9208;SDS011;4639;48.862;9.188;2024-02-04T01:46:12;174.95;;;164.32;;
9208;SDS011;4639;48.862;9.188;2024-02-04T01:48:38;183.55;;;172.07;;
9208;SDS011;4639;48.862;9.188;2024-02-04T01:51:04;183.13;;;171.93;;
9208;SDS011;4639;48.862;9.188;2024-02-04T01:53:30;175.45;;;164.70;;
9208;SDS011;4639;48.862;9.188;2024-02-04T01:55:59;179.35;;;168.32;;
9208;SDS011;4639;48.862;9.188;2024-02-04T01:58:24;172.05;;;161.70;;
9208;SDS011;4639;48.862;9.188;2024-02-04T02:00:50;177.48;;;166.60;;
9208;SDS011;4639;48.862;9.188;2024-02-04T02:03:17;225.57;;;211.43;;
9208;SDS011;4639;48.862;9.188;2024-02-04T02:05:44;185.02;;;173.60;;
9208;SDS011;4639;48.862;9.188;2024-02-04T02:08:10;187.52;;;175.73;;
9208;SDS011;4639;48.862;9.188;2024-02-04T02:10:37;220.20;;;206.05;;
9208;SDS011;4639;48.862;9.188;2024-02-04T02:13:06;173.23;;;162.45;;
9208;SDS011;4639;48.862;9.188;2024-02-04T02:15:37;181.73;;;169.95;;
9208;SDS011;4639;48.862;9.188;2024-02-04T02:18:11;158.73;;;148.70;;
9208;SDS011;4639;48.862;9.188;2024-02-04T02:20:54;178.18;;;166.57;;
9208;SDS011;4639;48.862;9.188;2024-02-04T02:23:29;159.88;;;149.73;;
9208;SDS011;4639;48.862;9.188;2024-02-04T02:25:59;177.05;;;165.60;;
9208;SDS011;4639;48.862;9.188;2024-02-04T02:28:25;175.68;;;164.25;;
9208;SDS011;4639;48.862;9.188;2024-02-04T02:30:51;171.50;;;160.52;;
9208;SDS011;4639;48.862;9.188;2024-02-04T02:33:16;181.75;;;169.77;;
9208;SDS011;4639;48.862;9.188;2024-02-04T02:35:43;193.73;;;180.98;;
9208;SDS011;4639;48.862;9.188;2024-02-04T02:38:19;170.70;;;159.48;;
9208;SDS011;4639;48.862;9.188;2024-02-04T02:40:59;185.68;;;173.05;;
9208;SDS011;4639;48.862;9.188;2024-02-04T02:43:29;182.90;;;170.88;;
9208;SDS011;4639;48.862;9.188;2024-02-04T02:45:56;322.60;;;299.48;;
9208;SDS011;4639;48.862;9.188;2024-02-04T02:48:22;389.17;;;359.02;;
9208;SDS011;4639;48.862;9.188;2024-02-04T02:50:49;165.38;;;154.05;;
9208;SDS011;4639;48.862;9.188;2024-02-04T02:53:15;204.23;;;189.95;;
9208;SDS011;4639;48.862;9.188;2024-02-04T02:55:41;194.55;;;181.23;;
9208;SDS011;4639;48.862;9.188;2024-02-04T02:58:06;344.20;;;318.45;;
9208;SDS011;4639;48.862;9.188;2024-02-04T03:00:32;254.98;;;235.95;;
9208;SDS011;4639;48.862;9.188;2024-02-04T03:02:58;189.23;;;176.48;;
9208;SDS011;4639;48.862;9.188;2024-02-04T03:05:24;273.08;;;253.07;;
9208;SDS011;4639;48.862;9.188;2024-02-04T03:07:49;370.17;;;341.63;;
9208;SDS011;4639;48.862;9.188;2024-02-04T03:10:15;310.23;;;287.48;;
9208;SDS011;4639;48.862;9.188;2024-02-04T03:12:41;209.90;;;195.35;;
9208;SDS011;4639;48.862;9.188;2024-02-04T03:15:07;209.40;;;194.93;;
9208;SDS011;4639;48.862;9.188;2024-02-04T03:17:33;193.23;;;180.07;;
9208;SDS011;4639;48.862;9.188;2024-02-04T03:19:59;182.70;;;170.23;;
9208;SDS011;4639;48.862;9.188;2024-02-04T03:22:24;184.68;;;172.38;;
9208;SDS011;4639;48.862;9.188;2024-02-04T03:24:50;168.68;;;157.57;;
9208;SDS011;4639;48.862;9.188;2024-02-04T03:27:17;221.95;;;207.25;;
9208;SDS011;4639;48.862;9.188;2024-02-04T03:29:43;177.90;;;166.40;;
9208;SDS011;4639;48.862;9.188;2024-02-04T03:32:10;207.10;;;193.35;;
9208;SDS011;4639;48.862;9.188;2024-02-04T03:34:36;178.23;;;166.75;;
9208;SDS011;4639;48.862;9.188;2024-02-04T03:37:01;181.38;;;169.88;;
9208;SDS011;4639;48.862;9.188;2024-02-04T03:39:27;167.35;;;156.90;;
9208;SDS011;4639;48.862;9.188;2024-02-04T03:41:53;179.60;;;168.13;;
9208;SDS011;4639;48.862;9.188;2024-02-04T03:44:18;263.15;;;244.63;;
9208;SDS011;4639;48.862;9.188;2024-02-04T03:46:47;191.15;;;178.80;;
9208;SDS011;4639;48.862;9.188;2024-02-04T03:49:13;178.75;;;167.27;;
9208;SDS011;4639;48.862;9.188;2024-02-04T03:51:39;183.38;;;171.65;;
9208;SDS011;4639;48.862;9.188;2024-02-04T03:54:05;163.95;;;153.40;;
9208;SDS011;4639;48.862;9.188;2024-02-04T03:56:30;167.73;;;157.10;;
9208;SDS011;4639;48.862;9.188;2024-02-04T03:58:56;176.60;;;165.30;;
9208;SDS011;4639;48.862;9.188;2024-02-04T04:01:21;182.70;;;171.45;;
9208;SDS011;4639;48.862;9.188;2024-02-04T04:03:47;172.82;;;162.02;;
9208;SDS011;4639;48.862;9.188;2024-02-04T04:06:12;190.02;;;178.25;;
9208;SDS011;4639;48.862;9.188;2024-02-04T04:08:38;181.45;;;170.10;;
9208;SDS011;4639;48.862;9.188;2024-02-04T04:11:04;183.48;;;172.15;;
9208;SDS011;4639;48.862;9.188;2024-02-04T04:13:33;178.95;;;167.30;;
9208;SDS011;4639;48.862;9.188;2024-02-04T04:15:59;181.50;;;170.30;;
9208;SDS011;4639;48.862;9.188;2024-02-04T04:18:25;177.60;;;166.43;;
9208;SDS011;4639;48.862;9.188;2024-02-04T04:20:51;195.07;;;182.80;;
9208;SDS011;4639;48.862;9.188;2024-02-04T04:23:16;186.90;;;175.20;;
9208;SDS011;4639;48.862;9.188;2024-02-04T04:25:42;215.98;;;202.07;;
9208;SDS011;4639;48.862;9.188;2024-02-04T04:28:08;208.23;;;194.95;;
9208;SDS011;4639;48.862;9.188;2024-02-04T04:30:33;190.05;;;178.27;;
9208;SDS011;4639;48.862;9.188;2024-02-04T04:32:59;201.13;;;188.35;;
9208;SDS011;4639;48.862;9.188;2024-02-04T04:35:25;200.88;;;188.18;;
9208;SDS011;4639;48.862;9.188;2024-02-04T04:37:50;209.00;;;195.73;;
9208;SDS011;4639;48.862;9.188;2024-02-04T04:40:17;197.75;;;185.52;;
9208;SDS011;4639;48.862;9.188;2024-02-04T04:42:43;177.00;;;166.00;;
9208;SDS011;4639;48.862;9.188;2024-02-04T04:45:08;182.68;;;171.10;;
9208;SDS011;4639;48.862;9.188;2024-02-04T04:47:35;184.45;;;173.07;;
9208;SDS011;4639;48.862;9.188;2024-02-04T04:50:01;180.75;;;169.65;;
9208;SDS011;4639;48.862;9.188;2024-02-04T04:52:27;185.38;;;173.73;;
9208;SDS011;4639;48.862;9.188;2024-02-04T04:54:53;203.55;;;190.75;;
9208;SDS011;4639;48.862;9.188;2024-02-04T04:57:19;186.57;;;175.13;;
9208;SDS011;4639;48.862;9.188;2024-02-04T04:59:45;273.33;;;255.15;;
9208;SDS011;4639;48.862;9.188;2024-02-04T05:02:10;213.93;;;200.13;;
9208;SDS011;4639;48.862;9.188;2024-02-04T05:04:36;181.93;;;170.68;;
9208;SDS011;4639;48.862;9.188;2024-02-04T05:07:01;172.85;;;162.27;;
9208;SDS011;4639;48.862;9.188;2024-02-04T05:09:27;184.45;;;173.00;;
9208;SDS011;4639;48.862;9.188;2024-02-04T05:11:52;178.77;;;167.73;;
9208;SDS011;4639;48.862;9.188;2024-02-04T05:14:18;184.63;;;173.00;;
9208;SDS011;4639;48.862;9.188;2024-02-04T05:16:44;169.90;;;159.10;;
9208;SDS011;4639;48.862;9.188;2024-02-04T05:19:11;188.95;;;176.88;;
9208;SDS011;4639;48.862;9.188;2024-02-04T05:21:40;199.48;;;186.57;;
9208;SDS011;4639;48.862;9.188;2024-02-04T05:24:05;302.48;;;281.05;;
9208;SDS011;4639;48.862;9.188;2024-02-04T05:26:31;407.67;;;377.10;;
9208;SDS011;4639;48.862;9.188;2024-02-04T05:28:57;200.30;;;187.40;;
9208;SDS011;4639;48.862;9.188;2024-02-04T05:31:22;196.32;;;183.55;;
9208;SDS011;4639;48.862;9.188;2024-02-04T05:33:48;257.80;;;240.50;;
9208;SDS011;4639;48.862;9.188;2024-02-04T05:36:14;197.75;;;185.38;;
9208;SDS011;4639;48.862;9.188;2024-02-04T05:38:42;360.90;;;334.05;;
9208;SDS011;4639;48.862;9.188;2024-02-04T05:41:09;202.48;;;189.88;;
9208;SDS011;4639;48.862;9.188;2024-02-04T05:43:34;219.98;;;206.02;;
9208;SDS011;4639;48.862;9.188;2024-02-04T05:46:00;205.13;;;192.25;;
9208;SDS011;4639;48.862;9.188;2024-02-04T05:48:25;210.55;;;197.15;;
9208;SDS011;4639;48.862;9.188;2024-02-04T05:50:51;181.15;;;169.90;;
9208;SDS011;4639;48.862;9.188;2024-02-04T05:53:16;225.05;;;210.55;;
9208;SDS011;4639;48.862;9.188;2024-02-04T05:55:42;246.93;;;230.93;;
9208;SDS011;4639;48.862;9.188;2024-02-04T05:58:08;213.90;;;200.38;;
9208;SDS011;4639;48.862;9.188;2024-02-04T06:00:34;329.30;;;306.13;;
9208;SDS011;4639;48.862;9.188;2024-02-04T06:02:59;204.38;;;191.25;;
9208;SDS011;4639;48.862;9.188;2024-02-04T06:05:25;229.80;;;215.25;;
9208;SDS011;4639;48.862;9.188;2024-02-04T06:07:50;219.70;;;205.77;;
9208;SDS011;4639;48.862;9.188;2024-02-04T06:10:16;220.13;;;206.00;;
9208;SDS011;4639;48.862;9.188;2024-02-04T06:12:43;184.48;;;173.25;;
9208;SDS011;4639;48.862;9.188;2024-02-04T06:15:13;229.40;;;214.25;;
9208;SDS011;4639;48.862;9.188;2024-02-04T06:17:39;199.48;;;186.95;;
9208;SDS011;4639;48.862;9.188;2024-02-04T06:20:05;268.52;;;250.35;;
9208;SDS011;4639;48.862;9.188;2024-02-04T06:22:31;334.63;;;310.60;;
9208;SDS011;4639;48.862;9.188;2024-02-04T06:24:58;219.23;;;205.38;;
9208;SDS011;4639;48.862;9.188;2024-02-04T06:27:24;242.88;;;226.88;;
9208;SDS011;4639;48.862;9.188;2024-02-04T06:29:50;189.00;;;177.18;;
9208;SDS011;4639;48.862;9.188;2024-02-04T06:32:16;200.02;;;187.18;;
9208;SDS011;4639;48.862;9.188;2024-02-04T06:34:45;325.63;;;302.17;;
9208;SDS011;4639;48.862;9.188;2024-02-04T06:37:11;212.27;;;198.73;;
9208;SDS011;4639;48.862;9.188;2024-02-04T06:39:36;197.60;;;185.02;;
9208;SDS011;4639;48.862;9.188;2024-02-04T06:42:02;214.50;;;200.75;;
9208;SDS011;4639;48.862;9.188;2024-02-04T06:44:28;240.75;;;224.63;;
9208;SDS011;4639;48.862;9.188;2024-02-04T06:46:54;254.93;;;238.43;;
9208;SDS011;4639;48.862;9.188;2024-02-04T06:49:19;402.83;;;371.27;;
9208;SDS011;4639;48.862;9.188;2024-02-04T06:51:45;338.83;;;314.05;;
9208;SDS011;4639;48.862;9.188;2024-02-04T06:54:12;225.73;;;210.90;;
9208;SDS011;4639;48.862;9.188;2024-02-04T06:56:37;527.58;;;484.45;;
9208;SDS011;4639;48.862;9.188;2024-02-04T06:59:03;344.42;;;318.98;;
9208;SDS011;4639;48.862;9.188;2024-02-04T07:01:28;213.70;;;200.35;;
9208;SDS011;4639;48.862;9.188;2024-02-04T07:03:54;232.63;;;217.07;;
9208;SDS011;4639;48.862;9.188;2024-02-04T07:06:20;209.70;;;195.95;;
9208;SDS011;4639;48.862;9.188;2024-02-04T07:08:45;315.65;;;292.88;;
9208;SDS011;4639;48.862;9.188;2024-02-04T07:11:11;424.42;;;391.50;;
9208;SDS011;4639;48.862;9.188;2024-02-04T07:13:36;243.07;;;226.82;;
9208;SDS011;4639;48.862;9.188;2024-02-04T07:16:02;203.57;;;190.57;;
9208;SDS011;4639;48.862;9.188;2024-02-04T07:18:28;331.48;;;306.73;;
9208;SDS011;4639;48.862;9.188;2024-02-04T07:20:53;184.43;;;172.80;;
9208;SDS011;4639;48.862;9.188;2024-02-04T07:23:19;198.45;;;186.05;;
9208;SDS011;4639;48.862;9.188;2024-02-04T07:25:45;201.82;;;189.15;;
9208;SDS011;4639;48.862;9.188;2024-02-04T07:28:10;205.73;;;192.82;;
9208;SDS011;4639;48.862;9.188;2024-02-04T07:30:36;264.48;;;246.63;;
9208;SDS011;4639;48.862;9.188;2024-02-04T07:33:02;193.70;;;181.55;;
9208;SDS011;4639;48.862;9.188;2024-02-04T07:35:27;208.77;;;195.23;;
9208;SDS011;4639;48.862;9.188;2024-02-04T07:37:53;302.25;;;280.58;;
9208;SDS011;4639;48.862;9.188;2024-02-04T07:40:18;192.00;;;179.82;;
9208;SDS011;4639;48.862;9.188;2024-02-04T07:42:44;211.82;;;198.23;;
9208;SDS011;4639;48.862;9.188;2024-02-04T07:45:09;211.63;;;198.25;;
9208;SDS011;4639;48.862;9.188;2024-02-04T07:47:36;186.35;;;174.65;;
9208;SDS011;4639;48.862;9.188;2024-02-04T07:50:01;221.70;;;207.15;;
9208;SDS011;4639;48.862;9.188;2024-02-04T07:52:27;207.38;;;194.30;;
9208;SDS011;4639;48.862;9.188;2024-02-04T07:54:53;209.05;;;195.50;;
9208;SDS011;4639;48.862;9.188;2024-02-04T07:57:19;262.42;;;244.65;;
9208;SDS011;4639;48.862;9.188;2024-02-04T07:59:45;265.50;;;247.82;;
9208;SDS011;4639;48.862;9.188;2024-02-04T08:02:11;227.02;;;212.18;;
9208;SDS011;4639;48.862;9.188;2024-02-04T08:04:36;281.02;;;260.85;;
9208;SDS011;4639;48.862;9.188;2024-02-04T08:07:05;294.20;;;274.65;;
9208;SDS011;4639;48.862;9.188;2024-02-04T08:09:31;299.38;;;278.40;;
9208;SDS011;4639;48.862;9.188;2024-02-04T08:11:56;230.60;;;215.98;;
9208;SDS011;4639;48.862;9.188;2024-02-04T08:14:22;398.23;;;367.90;;
9208;SDS011;4639;48.862;9.188;2024-02-04T08:16:48;224.98;;;210.70;;
9208;SDS011;4639;48.862;9.188;2024-02-04T08:19:14;254.25;;;238.05;;
9208;SDS011;4639;48.862;9.188;2024-02-04T08:21:39;325.45;;;302.85;;
9208;SDS011;4639;48.862;9.188;2024-02-04T08:24:05;234.43;;;218.80;;
9208;SDS011;4639;48.862;9.188;2024-02-04T08:26:31;209.20;;;195.43;;
9208;SDS011;4639;48.862;9.188;2024-02-04T08:28:56;297.42;;;277.08;;
9208;SDS011;4639;48.862;9.188;2024-02-04T08:31:22;362.38;;;336.02;;
9208;SDS011;4639;48.862;9.188;2024-02-04T08:33:47;532.05;;;489.30;;
9208;SDS011;4639;48.862;9.188;2024-02-04T08:36:13;235.73;;;220.38;;
9208;SDS011;4639;48.862;9.188;2024-02-04T08:38:38;367.63;;;340.08;;
9208;SDS011;4639;48.862;9.188;2024-02-04T08:41:04;332.15;;;309.35;;
9208;SDS011;4639;48.862;9.188;2024-02-04T08:43:30;270.02;;;252.38;;
9208;SDS011;4639;48.862;9.188;2024-02-04T08:45:55;244.27;;;228.63;;
9208;SDS011;4639;48.862;9.188;2024-02-04T08:48:21;225.50;;;210.88;;
9208;SDS011;4639;48.862;9.188;2024-02-04T08:50:46;259.10;;;242.23;;
9208;SDS011;4639;48.862;9.188;2024-02-04T08:53:12;260.70;;;244.13;;
9208;SDS011;4639;48.862;9.188;2024-02-04T08:55:37;336.27;;;312.92;;
9208;SDS011;4639;48.862;9.188;2024-02-04T08:58:03;527.53;;;484.42;;
9208;SDS011;4639;48.862;9.188;2024-02-04T09:00:29;240.77;;;225.30;;
9208;SDS011;4639;48.862;9.188;2024-02-04T09:02:54;372.20;;;345.10;;
9208;SDS011;4639;48.862;9.188;2024-02-04T09:05:20;582.10;;;533.28;;
9208;SDS011;4639;48.862;9.188;2024-02-04T09:07:46;468.60;;;432.38;;
9208;SDS011;4639;48.862;9.188;2024-02-04T09:10:12;323.33;;;300.02;;
9208;SDS011;4639;48.862;9.188;2024-02-04T09:12:37;307.33;;;285.98;;
9208;SDS011;4639;48.862;9.188;2024-02-04T09:15:03;240.88;;;225.90;;
9208;SDS011;4639;48.862;9.188;2024-02-04T09:17:30;296.42;;;276.17;;
9208;SDS011;4639;48.862;9.188;2024-02-04T09:19:58;352.73;;;328.50;;
9208;SDS011;4639;48.862;9.188;2024-02-04T09:22:24;370.10;;;344.00;;
9208;SDS011;4639;48.862;9.188;2024-02-04T09:24:49;479.67;;;442.23;;
9208;SDS011;4639;48.862;9.188;2024-02-04T09:27:15;327.33;;;305.35;;
9208;SDS011;4639;48.862;9.188;2024-02-04T09:29:40;241.25;;;226.00;;
9208;SDS011;4639;48.862;9.188;2024-02-04T09:32:06;270.48;;;253.32;;
9208;SDS011;4639;48.862;9.188;2024-02-04T09:34:32;448.17;;;414.02;;
9208;SDS011;4639;48.862;9.188;2024-02-04T09:36:58;428.50;;;396.20;;
9208;SDS011;4639;48.862;9.188;2024-02-04T09:39:24;320.38;;;298.65;;
9208;SDS011;4639;48.862;9.188;2024-02-04T09:41:49;357.00;;;331.58;;
9208;SDS011;4639;48.862;9.188;2024-02-04T09:44:15;547.03;;;502.63;;
9208;SDS011;4639;48.862;9.188;2024-02-04T09:46:41;370.15;;;343.25;;
9208;SDS011;4639;48.862;9.188;2024-02-04T09:49:07;472.13;;;434.48;;
9208;SDS011;4639;48.862;9.188;2024-02-04T09:51:34;611.92;;;555.78;;
9208;SDS011;4639;48.862;9.188;2024-02-04T09:54:02;604.20;;;550.60;;
9208;SDS011;4639;48.862;9.188;2024-02-04T09:56:31;636.88;;;581.15;;
9208;SDS011;4639;48.862;9.188;2024-02-04T09:58:58;462.77;;;426.98;;
9208;SDS011;4639;48.862;9.188;2024-02-04T10:01:24;334.08;;;311.70;;
9208;SDS011;4639;48.862;9.188;2024-02-04T10:03:51;349.17;;;324.77;;
9208;SDS011;4639;48.862;9.188;2024-02-04T10:06:17;309.67;;;289.50;;
9208;SDS011;4639;48.862;9.188;2024-02-04T10:08:42;656.90;;;597.80;;
9208;SDS011;4639;48.862;9.188;2024-02-04T10:11:09;629.67;;;571.47;;
9208;SDS011;4639;48.862;9.188;2024-02-04T10:13:44;420.10;;;386.30;;
9208;SDS011;4639;48.862;9.188;2024-02-04T10:16:10;427.33;;;393.95;;
9208;SDS011;4639;48.862;9.188;2024-02-04T10:18:36;577.80;;;529.67;;
9208;SDS011;4639;48.862;9.188;2024-02-04T10:21:02;615.20;;;554.92;;
9208;SDS011;4639;48.862;9.188;2024-02-04T10:23:27;458.52;;;422.73;;
9208;SDS011;4639;48.862;9.188;2024-02-04T10:25:59;334.65;;;311.40;;
9208;SDS011;4639;48.862;9.188;2024-02-04T10:28:25;296.05;;;277.48;;
9208;SDS011;4639;48.862;9.188;2024-02-04T10:30:51;285.27;;;266.30;;
9208;SDS011;4639;48.862;9.188;2024-02-04T10:33:16;274.50;;;257.08;;
9208;SDS011;4639;48.862;9.188;2024-02-04T10:35:42;492.42;;;453.33;;
9208;SDS011;4639;48.862;9.188;2024-02-04T10:38:08;468.15;;;432.20;;
9208;SDS011;4639;48.862;9.188;2024-02-04T10:40:35;429.33;;;395.98;;
9208;SDS011;4639;48.862;9.188;2024-02-04T10:43:03;270.13;;;252.98;;
9208;SDS011;4639;48.862;9.188;2024-02-04T10:45:32;367.92;;;341.63;;
9208;SDS011;4639;48.862;9.188;2024-02-04T10:48:00;395.48;;;366.13;;
9208;SDS011;4639;48.862;9.188;2024-02-04T10:50:26;392.60;;;364.63;;
9208;SDS011;4639;48.862;9.188;2024-02-04T10:52:54;262.13;;;246.07;;
9208;SDS011;4639;48.862;9.188;2024-02-04T10:55:24;727.22;;;658.33;;
9208;SDS011;4639;48.862;9.188;2024-02-04T10:57:54;328.08;;;305.90;;
9208;SDS011;4639;48.862;9.188;2024-02-04T11:00:20;480.40;;;442.35;;
9208;SDS011;4639;48.862;9.188;2024-02-04T11:02:46;570.78;;;518.13;;
9208;SDS011;4639;48.862;9.188;2024-02-04T11:05:14;297.33;;;277.27;;
9208;SDS011;4639;48.862;9.188;2024-02-04T11:07:42;455.40;;;418.17;;
9208;SDS011;4639;48.862;9.188;2024-02-04T11:10:08;561.58;;;510.85;;
9208;SDS011;4639;48.862;9.188;2024-02-04T11:12:35;342.50;;;316.25;;
9208;SDS011;4639;48.862;9.188;2024-02-04T11:15:04;527.08;;;482.73;;
9208;SDS011;4639;48.862;9.188;2024-02-04T11:25:41;463.40;;;426.67;;
9208;SDS011;4639;48.862;9.188;2024-02-04T11:28:21;348.75;;;318.50;;
9208;SDS011;4639;48.862;9.188;2024-02-04T11:30:48;337.98;;;310.98;;
9208;SDS011;4639;48.862;9.188;2024-02-04T11:33:20;573.50;;;522.13;;
9208;SDS011;4639;48.862;9.188;2024-02-04T11:35:47;488.55;;;448.70;;
9208;SDS011;4639;48.862;9.188;2024-02-04T11:38:29;479.70;;;441.27;;
9208;SDS011;4639;48.862;9.188;2024-02-04T11:40:56;444.80;;;409.98;;
9208;SDS011;4639;48.862;9.188;2024-02-04T11:43:22;311.15;;;290.67;;
9208;SDS011;4639;48.862;9.188;2024-02-04T11:45:51;532.50;;;488.50;;
9208;SDS011;4639;48.862;9.188;2024-02-04T11:48:18;667.65;;;603.92;;
9208;SDS011;4639;48.862;9.188;2024-02-04T11:50:51;247.80;;;232.45;;
9208;SDS011;4639;48.862;9.188;2024-02-04T11:53:18;556.50;;;507.88;;
9208;SDS011;4639;48.862;9.188;2024-02-04T11:55:44;347.27;;;323.92;;
9208;SDS011;4639;48.862;9.188;2024-02-04T11:58:10;478.27;;;439.27;;
9208;SDS011;4639;48.862;9.188;2024-02-04T12:00:37;502.70;;;459.33;;
9208;SDS011;4639;48.862;9.188;2024-02-04T12:03:03;552.03;;;504.30;;
9208;SDS011;4639;48.862;9.188;2024-02-04T12:05:36;507.45;;;465.90;;
9208;SDS011;4639;48.862;9.188;2024-02-04T12:08:04;394.60;;;364.90;;
9208;SDS011;4639;48.862;9.188;2024-02-04T12:10:31;487.67;;;448.17;;
9208;SDS011;4639;48.862;9.188;2024-02-04T12:13:02;602.38;;;550.40;;
9208;SDS011;4639;48.862;9.188;2024-02-04T12:15:29;388.10;;;359.58;;
9208;SDS011;4639;48.862;9.188;2024-02-04T12:18:07;390.20;;;361.45;;
9208;SDS011;4639;48.862;9.188;2024-02-04T12:20:37;1047.18;;;704.20;;
9208;SDS011;4639;48.862;9.188;2024-02-04T12:23:03;403.27;;;371.90;;
9208;SDS011;4639;48.862;9.188;2024-02-04T12:25:30;455.88;;;419.38;;
9208;SDS011;4639;48.862;9.188;2024-02-04T12:27:59;464.77;;;427.40;;
9208;SDS011;4639;48.862;9.188;2024-02-04T12:30:28;562.38;;;514.58;;
9208;SDS011;4639;48.862;9.188;2024-02-04T12:33:04;574.38;;;523.20;;
9208;SDS011;4639;48.862;9.188;2024-02-04T12:35:30;583.85;;;531.20;;
9208;SDS011;4639;48.862;9.188;2024-02-04T12:37:57;539.35;;;494.83;;
9208;SDS011;4639;48.862;9.188;2024-02-04T12:40:24;391.52;;;362.38;;
9208;SDS011;4639;48.862;9.188;2024-02-04T12:42:54;628.85;;;567.80;;
9208;SDS011;4639;48.862;9.188;2024-02-04T12:45:21;546.13;;;499.80;;
9208;SDS011;4639;48.862;9.188;2024-02-04T12:47:51;439.10;;;403.42;;
9208;SDS011;4639;48.862;9.188;2024-02-04T12:50:17;702.97;;;635.45;;
9208;SDS011;4639;48.862;9.188;2024-02-04T12:52:44;463.20;;;426.15;;
9208;SDS011;4639;48.862;9.188;2024-02-04T12:55:23;704.45;;;636.22;;
9208;SDS011;4639;48.862;9.188;2024-02-04T12:57:50;247.13;;;231.20;;
9208;SDS011;4639;48.862;9.188;2024-02-04T13:00:19;545.08;;;498.75;;
9208;SDS011;4639;48.862;9.188;2024-02-04T13:02:48;714.10;;;640.53;;
9208;SDS011;4639;48.862;9.188;2024-02-04T13:05:21;453.20;;;417.88;;
9208;SDS011;4639;48.862;9.188;2024-02-04T13:07:56;295.88;;;276.77;;
9208;SDS011;4639;48.862;9.188;2024-02-04T13:10:27;646.63;;;583.78;;
9208;SDS011;4639;48.862;9.188;2024-02-04T13:15:35;299.92;;;279.92;;
9208;SDS011;4639;48.862;9.188;2024-02-04T13:18:05;482.48;;;443.27;;
9208;SDS011;4639;48.862;9.188;2024-02-04T13:20:31;631.03;;;570.20;;
9208;SDS011;4639;48.862;9.188;2024-02-04T13:22:57;740.85;;;669.08;;
9208;SDS011;4639;48.862;9.188;2024-02-04T13:25:25;716.80;;;641.75;;
9208;SDS011;4639;48.862;9.188;2024-02-04T13:27:51;321.77;;;299.30;;
9208;SDS011;4639;48.862;9.188;2024-02-04T13:30:17;262.95;;;246.40;;
9208;SDS011;4639;48.862;9.188;2024-02-04T13:32:44;477.55;;;439.67;;
9208;SDS011;4639;48.862;9.188;2024-02-04T13:35:09;423.60;;;392.23;;
9208;SDS011;4639;48.862;9.188;2024-02-04T13:37:36;301.50;;;280.20;;
9208;SDS011;4639;48.862;9.188;2024-02-04T13:40:05;696.35;;;633.42;;
9208;SDS011;4639;48.862;9.188;2024-02-04T13:42:33;407.67;;;377.27;;
9208;SDS011;4639;48.862;9.188;2024-02-04T13:45:00;615.50;;;562.00;;
9208;SDS011;4639;48.862;9.188;2024-02-04T13:47:27;312.15;;;291.35;;
9208;SDS011;4639;48.862;9.188;2024-02-04T13:49:52;473.45;;;435.48;;
9208;SDS011;4639;48.862;9.188;2024-02-04T13:52:18;430.75;;;397.95;;
9208;SDS011;4639;48.862;9.188;2024-02-04T13:54:44;582.78;;;533.47;;
9208;SDS011;4639;48.862;9.188;2024-02-04T13:57:09;274.88;;;257.13;;
9208;SDS011;4639;48.862;9.188;2024-02-04T13:59:36;458.38;;;422.48;;
9208;SDS011;4639;48.862;9.188;2024-02-04T14:02:01;489.20;;;449.38;;
9208;SDS011;4639;48.862;9.188;2024-02-04T14:04:27;306.38;;;285.80;;
9208;SDS011;4639;48.862;9.188;2024-02-04T14:06:54;563.72;;;513.50;;
9208;SDS011;4639;48.862;9.188;2024-02-04T14:09:20;406.20;;;375.92;;
9208;SDS011;4639;48.862;9.188;2024-02-04T14:11:45;732.03;;;658.28;;
9208;SDS011;4639;48.862;9.188;2024-02-04T14:14:11;289.90;;;270.55;;
9208;SDS011;4639;48.862;9.188;2024-02-04T14:16:37;322.23;;;300.02;;
9208;SDS011;4639;48.862;9.188;2024-02-04T14:19:02;296.80;;;277.45;;
9208;SDS011;4639;48.862;9.188;2024-02-04T14:21:28;326.05;;;303.77;;
9208;SDS011;4639;48.862;9.188;2024-02-04T14:23:54;595.03;;;543.75;;
9208;SDS011;4639;48.862;9.188;2024-02-04T14:26:20;317.90;;;296.65;;
9208;SDS011;4639;48.862;9.188;2024-02-04T14:28:45;447.00;;;412.73;;